Vinh Hung — XVFL — position and weather

sailwx.info

Track history (hours):
 
Tides and Currents Weather Stations Pressure Air Temp Water Temp Dewpoint Dewpoint Depression Visibility Wind Speed Wind Dir Waves Ship Positions

Vinh Hung

Last reported at 2017-Jul-23 02:00 UTC. Time now 2017-Aug-22 12:57 UTC.
Position S 06°44' E 112°42'.
Warning: this ship's position is 30 days out of date.

Length 103 m; draft 4.2 m.

Type: Cargo ship. MMSI: 574206000.

Date/timePositionNaut miles runAvg speedWind from/ knotsBaromVisibWave heightAir tempDewpointWater temp
2017-Jul-23 02:00S 06°44' E 112°42'510.0
2017-Jul-23 01:29S 06°49' E 112°45'710.4
2017-Jul-23 00:48S 06°55' E 112°43'310.2
2017-Jul-23 00:30S 06°58' E 112°42'5 9.4
2017-Jul-22 23:58S 07°03' E 112°40'4 8.9
2017-Jul-22 23:30S 07°07' E 112°39'4 8.3
2017-Jul-22 22:58S 07°11' E 112°41'3 5.3
2017-Jul-22 22:30S 07°12' E 112°44'0 0.0
2017-Jul-22 22:00S 07°12' E 112°44'0 0.0
2017-Jul-22 21:30S 07°12' E 112°44'0 0.0
2017-Jul-22 21:00S 07°12' E 112°44'0 0.0
2017-Jul-22 20:29S 07°12' E 112°44'0 0.0
2017-Jul-22 20:00S 07°12' E 112°44'0 0.0
2017-Jul-22 19:24S 07°12' E 112°44'0 0.0
2017-Jul-22 18:12S 07°12' E 112°44'0 0.0
2017-Jul-22 17:54S 07°12' E 112°44'0 0.0
2017-Jul-22 10:18S 07°12' E 112°44'0 0.0
2017-Jul-22 08:03S 07°12' E 112°44'0 0.0
2017-Jul-22 02:03S 07°12' E 112°44'0 0.0
2017-Jul-22 00:24S 07°12' E 112°44'0 0.0
2017-Jul-21 15:15S 07°12' E 112°44'0 0.0
2017-Jul-21 13:09S 07°12' E 112°44'0 0.0
2017-Jul-21 10:54S 07°12' E 112°44'0 0.0
2017-Jul-21 08:54S 07°12' E 112°44'0 0.0
2017-Jul-21 08:18S 07°12' E 112°44'0 0.0
2017-Jul-21 06:24S 07°12' E 112°44'0 0.0
2017-Jul-21 03:27S 07°12' E 112°44'0 0.0
2017-Jul-21 01:24S 07°12' E 112°44'0 0.0
2017-Jul-20 23:12S 07°12' E 112°44'0 0.0
2017-Jul-20 15:48S 07°12' E 112°44'0 0.0
2017-Jul-20 13:24S 07°12' E 112°44'0 0.0
2017-Jul-20 12:54S 07°12' E 112°44'0 0.0
2017-Jul-20 07:42S 07°12' E 112°44'0 0.0
2017-Jul-20 07:18S 07°12' E 112°44'0 0.0
2017-Jul-20 06:57S 07°12' E 112°44'0 0.0
2017-Jul-20 06:27S 07°12' E 112°44'0 0.0
2017-Jul-20 04:30S 07°12' E 112°44'0 0.0
2017-Jul-20 04:00S 07°12' E 112°44'0 0.0
2017-Jul-20 03:27S 07°12' E 112°44'0 0.0
2017-Jul-20 01:57S 07°12' E 112°44'0 0.0
2017-Jul-19 19:57S 07°12' E 112°44'0 0.0
2017-Jul-19 12:09S 07°12' E 112°44'0 0.0
2017-Jul-19 11:15S 07°12' E 112°44'0 0.0
2017-Jul-19 10:48S 07°12' E 112°44'0 0.0
2017-Jul-19 10:00S 07°12' E 112°44'0 0.0
2017-Jul-19 09:24S 07°12' E 112°44'0 0.0
2017-Jul-19 07:00S 07°12' E 112°44'0 0.0
2017-Jul-19 06:21S 07°12' E 112°44'0 0.0
2017-Jul-19 05:57S 07°12' E 112°44'0 0.0
2017-Jul-19 05:30S 07°12' E 112°44'0 0.0
2017-Jul-19 01:15S 07°12' E 112°44'0 0.0
2017-Jul-19 00:36S 07°12' E 112°44'0 0.0
2017-Jul-19 00:24S 07°12' E 112°44'0 0.0
2017-Jul-18 23:48S 07°12' E 112°44'0 0.0
2017-Jul-18 23:27S 07°12' E 112°44'0 0.0
2017-Jul-18 22:57S 07°12' E 112°44'0 0.0
2017-Jul-18 22:24S 07°12' E 112°44'0 0.0
2017-Jul-18 20:33S 07°12' E 112°44'0 0.0
2017-Jul-18 20:18S 07°12' E 112°44'0 0.0
2017-Jul-18 20:00S 07°12' E 112°44'0 0.0
2017-Jul-18 16:27S 07°12' E 112°44'0 0.0
2017-Jul-18 14:42S 07°12' E 112°44'0 0.0
2017-Jul-18 11:30S 07°12' E 112°44'0 0.0
2017-Jul-18 09:27S 07°12' E 112°44'0 0.0
2017-Jul-18 09:01S 07°12' E 112°44'3 5.1
2017-Jul-18 08:30S 07°11' E 112°41'511.1
2017-Jul-18 08:00S 07°06' E 112°39'611.7
2017-Jul-18 07:27S 06°60' E 112°41'710.3
2017-Jul-18 06:49S 06°54' E 112°44'3 6.7
2017-Jul-18 06:23S 06°51' E 112°45'1 0.0
2017-Jul-17 00:37S 06°50' E 112°46'0 0.0
2017-Jul-16 22:58S 06°50' E 112°46'0 0.0
2017-Jul-16 18:07S 06°50' E 112°46'0 0.0
2017-Jul-15 05:31S 06°50' E 112°46'0 0.0
2017-Jul-15 05:25S 06°50' E 112°46'0 0.0
2017-Jul-15 04:58S 06°50' E 112°46'0 0.0
2017-Jul-13 16:52S 06°50' E 112°46'0 0.0
2017-Jul-13 11:22S 06°50' E 112°46'0 0.0
2017-Jul-13 04:07S 06°50' E 112°46'0 0.0
2017-Jul-13 03:04S 06°50' E 112°46'0 0.0
2017-Jul-13 02:43S 06°50' E 112°46'0 0.0
2017-Jul-13 02:19S 06°50' E 112°46'  
Track history (hours):
 
Tides and Currents Weather Stations Pressure Air Temp Water Temp Dewpoint Dewpoint Depression Visibility Wind Speed Wind Dir Waves Ship Positions

Vinh Hung

Last reported at 2017-Jul-23 02:00 UTC. Time now 2017-Aug-22 12:57 UTC.
Position S 06°44' E 112°42'.
Warning: this ship's position is 30 days out of date.

Length 103 m; draft 4.2 m.

Type: Cargo ship. MMSI: 574206000.

Date/timePositionNaut miles runAvg speedWind from/ knotsBaromVisibWave heightAir tempDewpointWater temp
2017-Jul-23 02:00S 06°44' E 112°42'510.0
2017-Jul-23 01:29S 06°49' E 112°45'710.4
2017-Jul-23 00:48S 06°55' E 112°43'310.2
2017-Jul-23 00:30S 06°58' E 112°42'5 9.4
2017-Jul-22 23:58S 07°03' E 112°40'4 8.9
2017-Jul-22 23:30S 07°07' E 112°39'4 8.3
2017-Jul-22 22:58S 07°11' E 112°41'3 5.3
2017-Jul-22 22:30S 07°12' E 112°44'0 0.0
2017-Jul-22 22:00S 07°12' E 112°44'0 0.0
2017-Jul-22 21:30S 07°12' E 112°44'0 0.0
2017-Jul-22 21:00S 07°12' E 112°44'0 0.0
2017-Jul-22 20:29S 07°12' E 112°44'0 0.0
2017-Jul-22 20:00S 07°12' E 112°44'0 0.0
2017-Jul-22 19:24S 07°12' E 112°44'0 0.0
2017-Jul-22 18:12S 07°12' E 112°44'0 0.0
2017-Jul-22 17:54S 07°12' E 112°44'0 0.0
2017-Jul-22 10:18S 07°12' E 112°44'0 0.0
2017-Jul-22 08:03S 07°12' E 112°44'0 0.0
2017-Jul-22 02:03S 07°12' E 112°44'0 0.0
2017-Jul-22 00:24S 07°12' E 112°44'0 0.0
2017-Jul-21 15:15S 07°12' E 112°44'0 0.0
2017-Jul-21 13:09S 07°12' E 112°44'0 0.0
2017-Jul-21 10:54S 07°12' E 112°44'0 0.0
2017-Jul-21 08:54S 07°12' E 112°44'0 0.0
2017-Jul-21 08:18S 07°12' E 112°44'0 0.0
2017-Jul-21 06:24S 07°12' E 112°44'0 0.0
2017-Jul-21 03:27S 07°12' E 112°44'0 0.0
2017-Jul-21 01:24S 07°12' E 112°44'0 0.0
2017-Jul-20 23:12S 07°12' E 112°44'0 0.0
2017-Jul-20 15:48S 07°12' E 112°44'0 0.0
2017-Jul-20 13:24S 07°12' E 112°44'0 0.0
2017-Jul-20 12:54S 07°12' E 112°44'0 0.0
2017-Jul-20 07:42S 07°12' E 112°44'0 0.0
2017-Jul-20 07:18S 07°12' E 112°44'0 0.0
2017-Jul-20 06:57S 07°12' E 112°44'0 0.0
2017-Jul-20 06:27S 07°12' E 112°44'0 0.0
2017-Jul-20 04:30S 07°12' E 112°44'0 0.0
2017-Jul-20 04:00S 07°12' E 112°44'0 0.0
2017-Jul-20 03:27S 07°12' E 112°44'0 0.0
2017-Jul-20 01:57S 07°12' E 112°44'0 0.0
2017-Jul-19 19:57S 07°12' E 112°44'0 0.0
2017-Jul-19 12:09S 07°12' E 112°44'0 0.0
2017-Jul-19 11:15S 07°12' E 112°44'0 0.0
2017-Jul-19 10:48S 07°12' E 112°44'0 0.0
2017-Jul-19 10:00S 07°12' E 112°44'0 0.0
2017-Jul-19 09:24S 07°12' E 112°44'0 0.0
2017-Jul-19 07:00S 07°12' E 112°44'0 0.0
2017-Jul-19 06:21S 07°12' E 112°44'0 0.0
2017-Jul-19 05:57S 07°12' E 112°44'0 0.0
2017-Jul-19 05:30S 07°12' E 112°44'0 0.0
2017-Jul-19 01:15S 07°12' E 112°44'0 0.0
2017-Jul-19 00:36S 07°12' E 112°44'0 0.0
2017-Jul-19 00:24S 07°12' E 112°44'0 0.0
2017-Jul-18 23:48S 07°12' E 112°44'0 0.0
2017-Jul-18 23:27S 07°12' E 112°44'0 0.0
2017-Jul-18 22:57S 07°12' E 112°44'0 0.0
2017-Jul-18 22:24S 07°12' E 112°44'0 0.0
2017-Jul-18 20:33S 07°12' E 112°44'0 0.0
2017-Jul-18 20:18S 07°12' E 112°44'0 0.0
2017-Jul-18 20:00S 07°12' E 112°44'0 0.0
2017-Jul-18 16:27S 07°12' E 112°44'0 0.0
2017-Jul-18 14:42S 07°12' E 112°44'0 0.0
2017-Jul-18 11:30S 07°12' E 112°44'0 0.0
2017-Jul-18 09:27S 07°12' E 112°44'0 0.0
2017-Jul-18 09:01S 07°12' E 112°44'3 5.1
2017-Jul-18 08:30S 07°11' E 112°41'511.1
2017-Jul-18 08:00S 07°06' E 112°39'611.7
2017-Jul-18 07:27S 06°60' E 112°41'710.3
2017-Jul-18 06:49S 06°54' E 112°44'3 6.7
2017-Jul-18 06:23S 06°51' E 112°45'1 0.0
2017-Jul-17 00:37S 06°50' E 112°46'0 0.0
2017-Jul-16 22:58S 06°50' E 112°46'0 0.0
2017-Jul-16 18:07S 06°50' E 112°46'0 0.0
2017-Jul-15 05:31S 06°50' E 112°46'0 0.0
2017-Jul-15 05:25S 06°50' E 112°46'0 0.0
2017-Jul-15 04:58S 06°50' E 112°46'0 0.0
2017-Jul-13 16:52S 06°50' E 112°46'0 0.0
2017-Jul-13 11:22S 06°50' E 112°46'0 0.0
2017-Jul-13 04:07S 06°50' E 112°46'0 0.0
2017-Jul-13 03:04S 06°50' E 112°46'0 0.0
2017-Jul-13 02:43S 06°50' E 112°46'0 0.0
2017-Jul-13 02:19S 06°50' E 112°46'  

Dump ship's entire track history